createdAt,value
2018-07-19T00:00:37.169Z,19.36
2018-07-19T00:01:43.523Z,19.29
2018-07-19T00:02:46.398Z,19.25
2018-07-19T00:03:58.287Z,19.31
2018-07-19T00:05:06.994Z,19.23
2018-07-19T00:06:07.719Z,19.28
2018-07-19T00:07:15.814Z,19.32
2018-07-19T00:10:24.540Z,19.24
2018-07-19T00:11:44.617Z,19.24
2018-07-19T00:12:41.282Z,19.15
2018-07-19T00:13:50.467Z,19.11
2018-07-19T00:14:54.680Z,19.14
2018-07-19T00:17:00.624Z,19.15
2018-07-19T00:18:10.362Z,19.13
2018-07-19T00:19:13.949Z,19.21
2018-07-19T00:20:14.879Z,19.13
2018-07-19T00:21:29.024Z,19.13
2018-07-19T00:22:18.373Z,19.05
2018-07-19T00:23:34.825Z,19.13
2018-07-19T00:24:45.113Z,19.10
2018-07-19T00:25:47.885Z,19.06
2018-07-19T00:27:58.447Z,19.02
2018-07-19T00:29:01.934Z,19.05
2018-07-19T00:30:22.015Z,19.06
2018-07-19T00:31:13.109Z,19.06
2018-07-19T00:32:21.003Z,19.05
2018-07-19T00:33:23.772Z,19.02
2018-07-19T00:34:23.780Z,18.97
2018-07-19T00:35:36.177Z,18.94
2018-07-19T00:36:45.306Z,18.99
2018-07-19T00:37:49.605Z,19.06
2018-07-19T00:38:59.234Z,19.01
2018-07-19T00:40:00.167Z,18.90
2018-07-19T00:40:58.228Z,18.97
2018-07-19T00:43:15.138Z,18.99
2018-07-19T00:46:32.057Z,18.94
2018-07-19T00:47:37.077Z,18.95
2018-07-19T00:48:44.969Z,18.98
2018-07-19T00:49:43.282Z,18.97
2018-07-19T00:52:02.398Z,18.94
2018-07-19T00:53:02.285Z,18.92
2018-07-19T00:54:05.285Z,18.92
2018-07-19T00:55:13.785Z,18.83
2018-07-19T00:56:11.026Z,18.79
2018-07-19T00:57:30.388Z,18.74
2018-07-19T00:58:28.857Z,18.74
2018-07-19T00:59:37.285Z,18.76
2018-07-19T01:00:36.284Z,18.65
2018-07-19T01:01:57.755Z,18.77
2018-07-19T01:03:01.810Z,18.58
2018-07-19T01:04:02.889Z,18.57
2018-07-19T01:05:07.311Z,18.49
2018-07-19T01:06:14.313Z,18.55
2018-07-19T01:07:20.120Z,18.47
2018-07-19T01:08:19.288Z,18.49
2018-07-19T01:10:37.030Z,18.42
2018-07-19T01:11:41.139Z,18.39
2018-07-19T01:12:59.878Z,18.37
2018-07-19T01:13:56.302Z,18.36
2018-07-19T01:15:07.062Z,18.37
2018-07-19T01:16:04.710Z,18.25
2018-07-19T01:18:35.035Z,18.31
2018-07-19T01:20:25.629Z,18.33
2018-07-19T01:22:37.417Z,18.31
2018-07-19T01:23:43.262Z,18.27
2018-07-19T01:25:06.207Z,18.19
2018-07-19T01:25:51.740Z,18.15
2018-07-19T01:27:02.739Z,18.24
2018-07-19T01:28:10.015Z,18.27
2018-07-19T01:29:22.517Z,18.17
2018-07-19T01:30:16.585Z,18.18
2018-07-19T01:31:22.530Z,18.15
2018-07-19T01:32:35.541Z,18.18
2018-07-19T01:33:30.631Z,18.17
2018-07-19T01:34:35.556Z,18.15
2018-07-19T01:35:32.283Z,18.17
2018-07-19T01:37:47.349Z,18.28
2018-07-19T01:39:09.299Z,18.17
2018-07-19T01:39:54.940Z,18.24
2018-07-19T01:42:24.549Z,18.15
2018-07-19T01:44:22.822Z,18.12
2018-07-19T01:45:32.455Z,18.15
2018-07-19T01:46:36.559Z,18.15
2018-07-19T01:47:46.303Z,18.03
2018-07-19T01:48:59.712Z,18.04
2018-07-19T01:51:02.593Z,18.06
2018-07-19T01:52:04.342Z,18.12
2018-07-19T01:53:15.612Z,18.04
2018-07-19T01:54:24.016Z,18.07
2018-07-19T01:57:50.047Z,18.04
2018-07-19T01:58:43.703Z,17.87
2018-07-19T01:59:48.934Z,17.91
2018-07-19T02:00:45.765Z,18.03
2018-07-19T02:02:08.841Z,17.99
2018-07-19T02:03:02.367Z,17.92
2018-07-19T02:04:14.970Z,17.87
2018-07-19T02:05:18.561Z,17.89
2018-07-19T02:06:18.364Z,17.87
2018-07-19T02:07:24.305Z,17.82
2018-07-19T02:08:30.050Z,17.84
2018-07-19T02:10:45.308Z,17.76
2018-07-19T02:11:34.679Z,17.67
2018-07-19T02:12:46.666Z,17.71
2018-07-19T02:13:49.439Z,17.62
2018-07-19T02:15:02.346Z,17.62
2018-07-19T02:16:08.804Z,17.50
2018-07-19T02:17:15.672Z,17.53
2018-07-19T02:19:25.209Z,17.40
2018-07-19T02:20:30.233Z,17.38
2018-07-19T02:21:35.054Z,17.43
2018-07-19T02:22:27.482Z,17.35
2018-07-19T02:23:35.273Z,17.36
2018-07-19T02:25:54.536Z,17.44
2018-07-19T02:29:06.312Z,17.38
2018-07-19T02:30:18.319Z,17.35
2018-07-19T02:31:26.417Z,17.38
2018-07-19T02:32:18.128Z,17.38
2018-07-19T02:33:29.298Z,17.38
2018-07-19T02:34:28.187Z,17.29
2018-07-19T02:35:43.239Z,17.36
2018-07-19T02:36:52.256Z,17.43
2018-07-19T02:37:42.844Z,17.40
2018-07-19T02:38:56.315Z,17.33
2018-07-19T02:40:06.509Z,17.50
2018-07-19T02:41:07.335Z,17.32
2018-07-19T02:42:17.581Z,17.36
2018-07-19T02:43:20.457Z,17.33
2018-07-19T02:44:27.531Z,17.35
2018-07-19T02:45:28.861Z,17.44
2018-07-19T02:46:28.464Z,17.38
2018-07-19T02:47:44.138Z,17.44
2018-07-19T02:50:02.863Z,17.38
2018-07-19T02:50:58.392Z,17.38
2018-07-19T02:53:07.519Z,17.29
2018-07-19T02:54:20.122Z,17.23
2018-07-19T02:55:15.008Z,17.29
2018-07-19T02:56:27.712Z,17.28
2018-07-19T02:57:32.738Z,17.26
2018-07-19T02:58:42.368Z,17.26
2018-07-19T02:59:31.835Z,17.15
2018-07-19T03:00:48.016Z,17.25
2018-07-19T03:01:58.878Z,17.23
2018-07-19T03:03:09.845Z,17.23
2018-07-19T03:04:00.531Z,17.22
2018-07-19T03:05:09.033Z,17.22
2018-07-19T03:06:26.212Z,17.20
2018-07-19T03:07:19.595Z,17.15
2018-07-19T03:08:37.326Z,17.29
2018-07-19T03:09:27.597Z,17.18
2018-07-19T03:10:31.187Z,17.23
2018-07-19T03:11:40.512Z,17.13
2018-07-19T03:14:02.543Z,17.13
2018-07-19T03:18:10.453Z,17.14
2018-07-19T03:19:29.409Z,17.07
2018-07-19T03:20:38.322Z,17.07
2018-07-19T03:21:42.637Z,17.08
2018-07-19T03:22:35.670Z,17.17
2018-07-19T03:23:43.563Z,17.10
2018-07-19T03:24:44.186Z,17.15
2018-07-19T03:25:51.564Z,17.08
2018-07-19T03:26:57.510Z,17.08
2018-07-19T03:28:08.576Z,17.08
2018-07-19T03:29:03.978Z,17.08
2018-07-19T03:30:09.616Z,17.10
2018-07-19T03:32:27.249Z,17.03
2018-07-19T03:33:36.054Z,17.11
2018-07-19T03:34:38.930Z,17.07
2018-07-19T03:36:52.151Z,17.00
2018-07-19T03:37:54.409Z,17.07
2018-07-19T03:38:59.211Z,17.04
2018-07-19T03:40:08.262Z,17.00
2018-07-19T03:41:02.621Z,17.04
2018-07-19T03:42:13.483Z,17.04
2018-07-19T03:43:22.501Z,17.00
2018-07-19T03:44:34.696Z,17.03
2018-07-19T03:45:28.763Z,17.03
2018-07-19T03:46:41.672Z,17.04
2018-07-19T03:47:39.531Z,16.90
2018-07-19T03:48:53.255Z,16.95
2018-07-19T03:49:55.002Z,16.95
2018-07-19T03:50:54.908Z,16.92
2018-07-19T03:52:10.346Z,16.92
2018-07-19T03:53:07.208Z,16.93
2018-07-19T03:54:24.725Z,16.85
2018-07-19T03:55:25.758Z,16.95
2018-07-19T03:56:25.457Z,16.99
2018-07-19T03:57:31.301Z,16.93
2018-07-19T03:58:49.534Z,16.89
2018-07-19T03:59:43.341Z,16.90
2018-07-19T04:00:47.807Z,16.93
2018-07-19T04:03:00.400Z,16.93
2018-07-19T04:04:06.184Z,16.93
2018-07-19T04:05:11.693Z,16.96
2018-07-19T04:06:20.508Z,16.92
2018-07-19T04:07:26.402Z,16.92
2018-07-19T04:08:36.803Z,16.93
2018-07-19T04:09:32.815Z,16.96
2018-07-19T04:10:46.032Z,16.96
2018-07-19T04:11:48.811Z,16.96
2018-07-19T04:12:53.315Z,16.93
2018-07-19T04:13:50.557Z,16.96
2018-07-19T04:14:57.220Z,16.96
2018-07-19T04:16:07.774Z,16.96
2018-07-19T04:17:13.937Z,16.95
2018-07-19T04:19:29.916Z,16.98
2018-07-19T04:21:36.788Z,17.04
2018-07-19T04:22:40.583Z,17.03
2018-07-19T04:23:46.734Z,17.03
2018-07-19T04:24:50.123Z,17.00
2018-07-19T04:27:14.350Z,17.08
2018-07-19T04:28:13.488Z,17.00
2018-07-19T04:29:12.779Z,17.07
2018-07-19T04:30:30.353Z,17.14
2018-07-19T04:32:29.386Z,17.15
2018-07-19T04:33:43.833Z,17.14
2018-07-19T04:34:34.216Z,17.18
2018-07-19T04:35:40.875Z,17.18
2018-07-19T04:36:50.816Z,17.25
2018-07-19T04:38:04.338Z,17.17
2018-07-19T04:39:12.745Z,17.23
2018-07-19T04:40:11.828Z,17.13
2018-07-19T04:41:10.606Z,17.17
2018-07-19T04:43:25.880Z,17.22
2018-07-19T04:44:31.357Z,17.23
2018-07-19T04:45:47.415Z,17.32
2018-07-19T04:46:49.358Z,17.43
2018-07-19T04:47:47.513Z,17.38
2018-07-19T04:48:47.927Z,17.51
2018-07-19T04:49:58.482Z,17.53
2018-07-19T04:51:02.276Z,17.63
2018-07-19T04:52:04.946Z,17.62
2018-07-19T04:53:17.449Z,17.63
2018-07-19T04:54:30.883Z,17.69
2018-07-19T04:55:28.927Z,17.70
2018-07-19T04:56:29.753Z,17.82
2018-07-19T04:58:49.019Z,17.95
2018-07-19T04:59:52.917Z,17.92
2018-07-19T05:00:53.746Z,17.99
2018-07-19T05:03:03.074Z,17.88
2018-07-19T05:04:05.233Z,18.10
2018-07-19T05:05:23.568Z,18.02
2018-07-19T05:06:18.660Z,18.06
2018-07-19T05:07:20.919Z,18.03
2018-07-19T05:08:35.673Z,18.02
2018-07-19T05:09:43.666Z,18.07
2018-07-19T05:10:40.908Z,18.13
2018-07-19T05:11:49.620Z,18.17
2018-07-19T05:13:04.678Z,18.18
2018-07-19T05:15:25.363Z,18.19
2018-07-19T05:16:12.591Z,18.18
2018-07-19T05:17:16.277Z,18.27
2018-07-19T05:18:36.252Z,18.27
2018-07-19T05:19:25.508Z,18.29
2018-07-19T05:20:39.030Z,18.33
2018-07-19T05:21:55.215Z,18.33
2018-07-19T05:23:02.493Z,18.31
2018-07-19T05:24:03.012Z,18.34
2018-07-19T05:25:12.132Z,18.36
2018-07-19T05:26:08.454Z,18.37
2018-07-19T05:27:07.333Z,18.36
2018-07-19T05:28:20.463Z,18.44
2018-07-19T05:29:43.289Z,18.44
2018-07-19T05:31:45.561Z,18.50
2018-07-19T05:32:34.810Z,18.57
2018-07-19T05:33:59.371Z,18.64
2018-07-19T05:34:51.100Z,18.52
2018-07-19T05:36:28.941Z,18.54
2018-07-19T05:37:04.330Z,18.72
2018-07-19T05:38:08.945Z,18.67
2018-07-19T05:39:13.374Z,18.73
2018-07-19T05:40:15.259Z,18.64
2018-07-19T05:41:09.583Z,18.65
2018-07-19T05:43:13.689Z,18.67
2018-07-19T05:44:10.523Z,18.68
2018-07-19T05:44:41.242Z,18.79
2018-07-19T05:45:47.187Z,18.79
2018-07-19T05:46:54.465Z,18.77
2018-07-19T05:48:00.374Z,18.79
2018-07-19T05:49:25.404Z,18.91
2018-07-19T05:50:18.140Z,18.87
2018-07-19T05:51:22.549Z,18.97
2018-07-19T05:52:21.127Z,19.02
2018-07-19T05:56:50.436Z,19.14
2018-07-19T05:57:58.841Z,19.17
2018-07-19T05:58:55.672Z,19.24
2018-07-19T06:00:06.738Z,19.25
2018-07-19T06:01:15.859Z,19.38
2018-07-19T06:02:24.380Z,19.35
2018-07-19T06:03:27.240Z,19.36
2018-07-19T06:05:31.963Z,19.43
2018-07-19T06:08:49.904Z,19.70
2018-07-19T06:10:03.736Z,19.65
2018-07-19T06:11:02.922Z,19.72
2018-07-19T06:12:03.031Z,19.79
2018-07-19T06:13:23.007Z,19.76
2018-07-19T06:14:24.448Z,19.78
2018-07-19T06:17:33.888Z,19.83
2018-07-19T06:18:40.441Z,19.91
2018-07-19T06:19:47.113Z,19.94
2018-07-19T06:21:55.385Z,20.06
2018-07-19T06:23:01.676Z,20.20
2018-07-19T06:24:08.130Z,20.18
2018-07-19T06:25:16.386Z,20.15
2018-07-19T06:26:25.045Z,20.18
2018-07-19T06:27:22.897Z,20.18
2018-07-19T06:28:30.178Z,20.28
2018-07-19T06:29:27.416Z,20.35
2018-07-19T06:30:39.198Z,20.41
2018-07-19T06:31:45.560Z,20.47
2018-07-19T06:32:54.573Z,20.49
2018-07-19T06:33:59.903Z,20.53
2018-07-19T06:35:07.384Z,20.50
2018-07-19T06:36:03.603Z,20.61
2018-07-19T06:39:16.322Z,20.68
2018-07-19T06:40:25.135Z,20.72
2018-07-19T06:41:34.357Z,20.76
2018-07-19T06:42:44.094Z,20.81
2018-07-19T06:43:53.314Z,20.87
2018-07-19T06:44:54.551Z,20.90
2018-07-19T06:45:59.267Z,20.99
2018-07-19T06:47:01.630Z,20.91
2018-07-19T06:48:09.302Z,21.11
2018-07-19T06:49:07.696Z,21.06
2018-07-19T06:50:19.674Z,21.08
2018-07-19T06:51:18.450Z,21.09
2018-07-19T06:52:31.463Z,21.20
2018-07-19T06:53:28.909Z,21.26
2018-07-19T06:54:42.026Z,21.21
2018-07-19T06:55:42.438Z,21.35
2018-07-19T06:57:05.692Z,21.27
2018-07-19T06:57:57.197Z,21.35
2018-07-19T06:59:00.073Z,21.39
2018-07-19T07:00:09.399Z,21.32
2018-07-19T07:01:17.187Z,21.36
2018-07-19T07:02:24.055Z,21.41
2018-07-19T07:03:30.578Z,21.48
2018-07-19T07:04:31.031Z,21.57
2018-07-19T07:05:33.395Z,21.51
2018-07-19T07:06:48.044Z,21.56
2018-07-19T07:07:58.496Z,21.66
2018-07-19T07:08:59.469Z,21.61
2018-07-19T07:09:59.952Z,21.60
2018-07-19T07:11:13.673Z,21.67
2018-07-19T07:12:13.575Z,21.67
2018-07-19T07:13:20.042Z,21.67
2018-07-19T07:15:42.885Z,21.74
2018-07-19T07:16:41.158Z,21.75
2018-07-19T07:17:43.827Z,21.88
2018-07-19T07:18:54.780Z,21.88
2018-07-19T07:19:54.893Z,21.95
2018-07-19T07:21:00.834Z,21.97
2018-07-19T07:22:04.733Z,22.12
2018-07-19T07:23:26.143Z,22.04
2018-07-19T07:24:23.492Z,22.12
2018-07-19T07:25:22.879Z,22.13
2018-07-19T07:26:28.621Z,22.17
2018-07-19T07:27:32.217Z,22.17
2018-07-19T07:28:39.898Z,22.22
2018-07-19T07:31:01.317Z,22.25
2018-07-19T07:31:57.429Z,22.31
2018-07-19T07:33:03.170Z,22.29
2018-07-19T07:35:05.438Z,22.37
2018-07-19T07:36:23.502Z,22.38
2018-07-19T07:37:31.666Z,22.50
2018-07-19T07:39:31.883Z,22.49
2018-07-19T07:41:33.740Z,22.74
2018-07-19T07:43:58.130Z,22.57
2018-07-19T07:44:59.872Z,22.71
2018-07-19T07:45:54.666Z,22.72
2018-07-19T07:48:07.678Z,22.78
2018-07-19T07:49:33.999Z,22.78
2018-07-19T07:50:36.465Z,22.78
2018-07-19T07:51:39.951Z,22.84
2018-07-19T07:52:53.681Z,22.94
2018-07-19T07:54:01.370Z,22.97
2018-07-19T07:54:46.740Z,22.96
2018-07-19T07:57:03.436Z,23.12
2018-07-19T07:58:29.041Z,23.05
2018-07-19T07:59:24.703Z,23.26
2018-07-19T08:00:37.863Z,23.19
2018-07-19T08:01:29.681Z,23.31
2018-07-19T08:03:28.872Z,23.32
2018-07-19T08:04:49.257Z,23.35
2018-07-19T08:06:34.319Z,23.47
2018-07-19T08:07:52.151Z,23.43
2018-07-19T08:08:38.023Z,23.47
2018-07-19T08:10:02.808Z,23.47
2018-07-19T08:10:46.023Z,23.60
2018-07-19T08:11:56.685Z,23.60
2018-07-19T08:13:04.021Z,23.70
2018-07-19T08:15:04.481Z,23.68
2018-07-19T08:16:12.579Z,23.79
2018-07-19T08:17:23.541Z,23.79
2018-07-19T08:18:29.793Z,23.92
2018-07-19T08:19:21.894Z,23.92
2018-07-19T08:21:23.977Z,23.98
2018-07-19T08:23:48.063Z,24.05
2018-07-19T08:25:46.838Z,24.19
2018-07-19T08:26:55.352Z,24.24
2018-07-19T08:27:55.153Z,24.24
2018-07-19T08:29:06.457Z,24.31
2018-07-19T08:30:11.442Z,24.41
2018-07-19T08:31:15.444Z,24.42
2018-07-19T08:32:13.505Z,24.47
2018-07-19T08:33:18.734Z,24.54
2018-07-19T08:34:26.521Z,24.47
2018-07-19T08:35:29.806Z,24.53
2018-07-19T08:36:40.779Z,24.61
2018-07-19T08:37:44.877Z,24.56
2018-07-19T08:40:01.681Z,24.61
2018-07-19T08:42:01.181Z,24.77
2018-07-19T08:43:13.271Z,24.73
2018-07-19T08:45:27.214Z,24.79
2018-07-19T08:46:33.571Z,24.80
2018-07-19T08:47:33.676Z,24.80
2018-07-19T08:48:37.786Z,24.87
2018-07-19T08:49:47.923Z,24.80
2018-07-19T08:50:57.045Z,24.87
2018-07-19T08:51:52.860Z,24.88
2018-07-19T08:53:01.269Z,24.92
2018-07-19T08:53:58.805Z,24.98
2018-07-19T08:55:08.951Z,24.97
2018-07-19T08:58:26.697Z,24.94
2018-07-19T08:59:41.441Z,25.00
2018-07-19T09:02:04.800Z,24.98
2018-07-19T09:02:50.575Z,25.06
2018-07-19T09:04:00.207Z,25.06
2018-07-19T09:06:23.669Z,25.12
2018-07-19T09:07:14.867Z,25.13
2018-07-19T09:09:33.109Z,25.25
2018-07-19T09:10:38.345Z,25.31
2018-07-19T09:13:04.464Z,25.39
2018-07-19T09:15:17.279Z,25.47
2018-07-19T09:16:09.707Z,25.43
2018-07-19T09:16:58.859Z,25.47
2018-07-19T09:18:34.298Z,25.61
2018-07-19T09:20:36.564Z,25.54
2018-07-19T09:21:31.246Z,25.56
2018-07-19T09:23:41.502Z,25.71
2018-07-19T09:24:40.277Z,25.72
2018-07-19T09:25:46.127Z,25.77
2018-07-19T09:27:03.535Z,25.84
2018-07-19T09:29:10.513Z,25.83
2018-07-19T09:30:16.457Z,25.86
2018-07-19T09:31:20.052Z,25.89
2018-07-19T09:33:17.195Z,25.89
2018-07-19T09:34:47.205Z,25.89
2018-07-19T09:35:39.227Z,26.02
2018-07-19T09:36:50.906Z,25.97
2018-07-19T09:37:58.185Z,25.98
2018-07-19T09:38:49.486Z,25.94
2018-07-19T09:40:07.522Z,26.09
2018-07-19T09:42:13.984Z,26.17
2018-07-19T09:43:19.210Z,26.18
2018-07-19T09:44:18.191Z,26.25
2018-07-19T09:46:29.059Z,26.31
2018-07-19T09:47:34.806Z,26.36
2018-07-19T09:49:50.788Z,26.43
2018-07-19T09:51:58.690Z,26.54
2018-07-19T09:53:04.020Z,26.43
2018-07-19T09:55:15.709Z,26.55
2018-07-19T09:57:35.279Z,26.69
2018-07-19T09:58:32.625Z,26.65
2018-07-19T09:59:37.340Z,26.81
2018-07-19T10:01:39.196Z,26.68
2018-07-19T10:03:01.636Z,26.72
2018-07-19T10:05:11.782Z,26.61
2018-07-19T10:06:08.921Z,26.50
2018-07-19T10:07:06.984Z,26.67
2018-07-19T10:08:17.639Z,26.69
2018-07-19T10:10:38.746Z,26.80
2018-07-19T10:11:39.061Z,26.83
2018-07-19T10:12:38.557Z,26.87
2018-07-19T10:13:53.724Z,26.94
2018-07-19T10:14:58.742Z,26.98
2018-07-19T10:16:01.412Z,27.04
2018-07-19T10:18:15.459Z,26.96
2018-07-19T10:19:10.544Z,26.91
2018-07-19T10:20:15.774Z,26.77
2018-07-19T10:21:22.949Z,26.79
2018-07-19T10:22:24.184Z,26.80
2018-07-19T10:23:39.379Z,26.79
2018-07-19T10:25:44.172Z,26.89
2018-07-19T10:26:54.527Z,26.91
2018-07-19T10:27:51.464Z,26.89
2018-07-19T10:28:59.348Z,26.74
2018-07-19T10:30:28.847Z,26.80
2018-07-19T10:31:21.891Z,26.86
2018-07-19T10:33:29.892Z,26.91
2018-07-19T10:34:28.807Z,26.86
2018-07-19T10:35:43.319Z,26.86
2018-07-19T10:36:40.049Z,26.89
2018-07-19T10:37:51.420Z,26.94
2018-07-19T10:40:56.870Z,27.20
2018-07-19T10:44:15.864Z,27.53
2018-07-19T10:46:30.184Z,27.64
2018-07-19T10:47:59.685Z,27.77
2018-07-19T10:48:43.510Z,27.80
2018-07-19T10:49:52.631Z,27.84
2018-07-19T10:50:55.407Z,27.89
2018-07-19T10:52:00.959Z,28.06
2018-07-19T10:53:03.505Z,27.99
2018-07-19T10:54:15.394Z,28.09
2018-07-19T10:55:33.737Z,28.10
2018-07-19T10:57:27.438Z,28.04
2018-07-19T10:58:36.482Z,28.16
2018-07-19T10:59:41.332Z,28.11
2018-07-19T11:01:56.094Z,28.16
2018-07-19T11:03:06.134Z,28.25
2018-07-19T11:04:14.844Z,28.28
2018-07-19T11:05:09.015Z,28.23
2018-07-19T11:07:32.622Z,28.07
2018-07-19T11:08:21.937Z,28.01
2018-07-19T11:09:28.737Z,27.88
2018-07-19T11:10:41.818Z,27.80
2018-07-19T11:11:49.505Z,27.82
2018-07-19T11:12:53.629Z,27.80
2018-07-19T11:13:58.529Z,27.71
2018-07-19T11:14:56.999Z,27.59
2018-07-19T11:16:07.860Z,27.58
2018-07-19T11:17:11.763Z,27.51
2018-07-19T11:19:18.325Z,27.48
2018-07-19T11:20:30.517Z,27.38
2018-07-19T11:21:29.910Z,27.33
2018-07-19T11:22:41.493Z,27.33
2018-07-19T11:23:44.465Z,27.32
2018-07-19T11:24:55.633Z,27.23
2018-07-19T11:25:57.901Z,27.21
2018-07-19T11:27:02.509Z,27.20
2018-07-19T11:28:01.084Z,27.16
2018-07-19T11:29:12.044Z,27.10
2018-07-19T11:30:24.142Z,27.06
2018-07-19T11:31:23.121Z,27.05
2018-07-19T11:32:26.606Z,27.02
2018-07-19T11:33:37.980Z,26.98
2018-07-19T11:34:45.564Z,26.96
2018-07-19T11:35:49.155Z,26.95
2018-07-19T11:37:52.957Z,26.84
2018-07-19T11:40:04.132Z,26.94
2018-07-19T11:41:21.633Z,26.81
2018-07-19T11:42:16.751Z,26.86
2018-07-19T11:44:29.966Z,26.79
2018-07-19T11:45:37.652Z,26.76
2018-07-19T11:46:59.674Z,26.80
2018-07-19T11:47:35.925Z,26.80
2018-07-19T11:48:46.990Z,26.80
2018-07-19T11:49:51.550Z,26.80
2018-07-19T11:51:03.293Z,26.86
2018-07-19T11:54:24.400Z,27.20
2018-07-19T11:55:19.696Z,27.42
2018-07-19T11:56:33.631Z,27.39
2018-07-19T11:57:35.795Z,27.66
2018-07-19T11:58:41.836Z,27.69
2018-07-19T11:59:47.066Z,27.74
2018-07-19T12:00:49.844Z,27.86
2018-07-19T12:04:16.482Z,28.16
2018-07-19T12:06:20.495Z,28.19
2018-07-19T12:08:32.491Z,28.35
2018-07-19T12:09:42.160Z,28.44
2018-07-19T12:10:47.960Z,28.47
2018-07-19T12:11:46.541Z,28.51
2018-07-19T12:12:45.618Z,28.63
2018-07-19T12:13:59.569Z,28.68
2018-07-19T12:15:01.913Z,28.59
2018-07-19T12:17:22.613Z,28.59
2018-07-19T12:18:16.372Z,28.66
2018-07-19T12:19:33.821Z,28.77
2018-07-19T12:20:33.798Z,28.62
2018-07-19T12:21:42.300Z,28.53
2018-07-19T12:22:46.203Z,28.50
2018-07-19T12:24:53.380Z,28.56
2018-07-19T12:26:08.133Z,28.41
2018-07-19T12:27:02.303Z,28.40
2018-07-19T12:28:02.623Z,28.35
2018-07-19T12:29:16.139Z,28.23
2018-07-19T12:30:18.505Z,28.23
2018-07-19T12:31:30.287Z,28.16
2018-07-19T12:32:29.473Z,28.16
2018-07-19T12:33:46.991Z,28.11
2018-07-19T12:34:33.694Z,28.06
2018-07-19T12:36:57.668Z,27.96
2018-07-19T12:38:09.035Z,27.94
2018-07-19T12:39:07.410Z,28.03
2018-07-19T12:40:15.613Z,28.04
2018-07-19T12:42:18.488Z,28.03
2018-07-19T12:43:28.837Z,27.98
2018-07-19T12:45:39.288Z,27.94
2018-07-19T12:47:49.440Z,27.89
2018-07-19T12:48:51.195Z,27.91
2018-07-19T12:49:58.874Z,27.96
2018-07-19T12:51:04.103Z,27.98
2018-07-19T12:52:11.528Z,27.94
2018-07-19T12:53:14.972Z,27.99
2018-07-19T12:54:12.726Z,28.10
2018-07-19T12:55:27.375Z,28.19
2018-07-19T12:56:34.187Z,28.31
2018-07-19T12:57:38.252Z,28.29
2018-07-19T12:58:39.480Z,28.38
2018-07-19T12:59:53.317Z,28.48
2018-07-19T13:01:03.668Z,28.47
2018-07-19T13:01:57.626Z,28.54
2018-07-19T13:03:12.693Z,28.59
2018-07-19T13:04:06.757Z,28.69
2018-07-19T13:05:16.901Z,28.68
2018-07-19T13:06:31.521Z,28.77
2018-07-19T13:07:26.693Z,28.85
2018-07-19T13:08:38.728Z,28.85
2018-07-19T13:09:38.632Z,28.96
2018-07-19T13:10:49.084Z,28.95
2018-07-19T13:11:48.886Z,29.04
2018-07-19T13:13:00.066Z,29.04
2018-07-19T13:13:59.754Z,29.13
2018-07-19T13:16:14.107Z,29.22
2018-07-19T13:17:15.959Z,29.22
2018-07-19T13:18:30.203Z,29.25
2018-07-19T13:19:25.089Z,29.22
2018-07-19T13:20:34.508Z,29.29
2018-07-19T13:21:47.217Z,29.37
2018-07-19T13:22:42.519Z,29.33
2018-07-19T13:23:57.980Z,29.44
2018-07-19T13:24:53.584Z,29.49
2018-07-19T13:26:01.781Z,29.52
2018-07-19T13:27:06.293Z,29.47
2018-07-19T13:28:13.059Z,29.50
2018-07-19T13:29:25.686Z,29.47
2018-07-19T13:31:26.688Z,29.50
2018-07-19T13:32:32.533Z,29.57
2018-07-19T13:33:41.772Z,29.59
2018-07-19T13:34:49.247Z,29.60
2018-07-19T13:35:54.476Z,29.62
2018-07-19T13:36:57.146Z,29.71
2018-07-19T13:38:05.067Z,29.70
2018-07-19T13:39:10.065Z,29.63
2018-07-19T13:40:17.871Z,29.62
2018-07-19T13:41:18.882Z,29.63
2018-07-19T13:42:25.341Z,29.63
2018-07-19T13:43:31.524Z,29.63
2018-07-19T13:44:38.154Z,29.59
2018-07-19T13:45:36.726Z,29.49
2018-07-19T13:46:49.022Z,29.52
2018-07-19T13:47:52.722Z,29.45
2018-07-19T13:49:06.752Z,29.45
2018-07-19T13:50:06.245Z,29.47
2018-07-19T13:51:18.541Z,29.44
2018-07-19T13:52:09.745Z,29.49
2018-07-19T13:55:29.218Z,29.43
2018-07-19T13:56:41.206Z,29.50
2018-07-19T13:57:41.315Z,29.45
2018-07-19T13:58:44.809Z,29.52
2018-07-19T13:59:52.799Z,29.50
2018-07-19T14:01:06.529Z,29.56
2018-07-19T14:01:55.781Z,29.62
2018-07-19T14:04:31.429Z,29.60
2018-07-19T14:05:30.617Z,29.62
2018-07-19T14:06:27.039Z,29.62
2018-07-19T14:07:31.663Z,29.56
2018-07-19T14:08:36.987Z,29.62
2018-07-19T14:09:45.699Z,29.56
2018-07-19T14:11:00.559Z,29.62
2018-07-19T14:11:53.390Z,29.60
2018-07-19T14:14:10.525Z,29.56
2018-07-19T14:15:29.870Z,29.55
2018-07-19T14:17:20.535Z,29.41
2018-07-19T14:18:38.535Z,29.37
2018-07-19T14:19:50.683Z,29.43
2018-07-19T14:20:35.950Z,29.37
2018-07-19T14:21:41.478Z,29.43
2018-07-19T14:22:55.445Z,29.35
2018-07-19T14:24:02.698Z,29.31
2018-07-19T14:24:56.348Z,29.34
2018-07-19T14:26:03.011Z,29.35
2018-07-19T14:27:18.380Z,29.37
2018-07-19T14:28:14.538Z,29.34
2018-07-19T14:30:32.836Z,29.31
2018-07-19T14:31:33.456Z,29.28
2018-07-19T14:32:34.289Z,29.26
2018-07-19T14:34:54.879Z,29.26
2018-07-19T14:35:58.162Z,29.26
2018-07-19T14:37:01.967Z,29.33
2018-07-19T14:38:04.304Z,29.25
2018-07-19T14:40:20.923Z,29.23
2018-07-19T14:41:25.434Z,29.20
2018-07-19T14:42:28.002Z,29.23
2018-07-19T14:44:39.081Z,29.19
2018-07-19T14:45:40.830Z,29.26
2018-07-19T14:46:51.691Z,29.26
2018-07-19T14:48:59.177Z,29.23
2018-07-19T14:50:03.278Z,29.20
2018-07-19T14:51:13.115Z,29.26
2018-07-19T14:52:16.295Z,29.13
2018-07-19T14:53:23.067Z,29.11
2018-07-19T14:54:26.444Z,29.15
2018-07-19T14:55:35.566Z,29.16
2018-07-19T14:56:36.818Z,29.18
2018-07-19T14:57:43.569Z,29.15
2018-07-19T14:59:02.211Z,29.16
2018-07-19T14:59:57.613Z,29.15
2018-07-19T15:01:10.928Z,29.22
2018-07-19T15:02:03.664Z,29.07
2018-07-19T15:03:12.478Z,29.13
2018-07-19T15:04:23.654Z,29.15
2018-07-19T15:05:20.172Z,29.08
2018-07-19T15:06:23.352Z,29.15
2018-07-19T15:07:37.598Z,29.19
2018-07-19T15:08:39.340Z,29.16
2018-07-19T15:09:45.594Z,29.18
2018-07-19T15:11:56.360Z,29.11
2018-07-19T15:13:02.307Z,29.08
2018-07-19T15:14:09.583Z,29.07
2018-07-19T15:15:20.670Z,29.07
2018-07-19T15:16:13.182Z,29.03
2018-07-19T15:17:31.929Z,28.95
2018-07-19T15:18:41.052Z,28.96
2018-07-19T15:19:39.314Z,28.97
2018-07-19T15:20:35.750Z,28.91
2018-07-19T15:21:46.191Z,28.93
2018-07-19T15:22:50.494Z,28.87
2018-07-19T15:23:54.906Z,28.88
2018-07-19T15:25:04.339Z,28.82
2018-07-19T15:26:14.580Z,28.82
2018-07-19T15:27:19.604Z,28.84
2018-07-19T15:29:24.738Z,28.68
2018-07-19T15:30:29.662Z,28.72
2018-07-19T15:31:36.341Z,28.69
2018-07-19T15:32:39.814Z,28.70
2018-07-19T15:33:49.341Z,28.69
2018-07-19T15:38:21.522Z,28.68
2018-07-19T15:39:21.324Z,28.72
2018-07-19T15:40:31.264Z,28.70
2018-07-19T15:41:28.817Z,28.73
2018-07-19T15:43:35.587Z,28.73
2018-07-19T15:44:39.689Z,28.70
2018-07-19T15:46:59.772Z,28.63
2018-07-19T15:48:00.495Z,28.70
2018-07-19T15:51:13.317Z,28.69
2018-07-19T15:53:19.270Z,28.77
2018-07-19T15:54:33.202Z,28.81
2018-07-19T15:55:38.132Z,28.80
2018-07-19T15:56:42.432Z,28.95
2018-07-19T15:57:45.920Z,28.88
2018-07-19T15:58:49.205Z,28.90
2018-07-19T15:59:54.646Z,28.95
2018-07-19T16:01:06.423Z,28.80
2018-07-19T16:02:14.007Z,28.87
2018-07-19T16:05:25.394Z,28.90
2018-07-19T16:07:43.327Z,28.84
2018-07-19T16:08:49.785Z,28.81
2018-07-19T16:09:51.636Z,28.75
2018-07-19T16:10:58.708Z,28.77
2018-07-19T16:12:00.561Z,28.93
2018-07-19T16:13:06.302Z,29.04
2018-07-19T16:14:16.955Z,29.22
2018-07-19T16:16:25.369Z,29.18
2018-07-19T16:19:40.337Z,28.95
2018-07-19T16:20:43.675Z,28.91
2018-07-19T16:21:49.471Z,28.90
2018-07-19T16:22:59.815Z,28.82
2018-07-19T16:24:00.549Z,28.84
2018-07-19T16:25:01.261Z,28.78
2018-07-19T16:26:15.818Z,28.72
2018-07-19T16:27:17.253Z,28.73
2018-07-19T16:28:25.820Z,28.69
2018-07-19T16:29:28.321Z,28.75
2018-07-19T16:30:38.474Z,28.77
2018-07-19T16:31:44.926Z,28.66
2018-07-19T16:32:46.795Z,28.70
2018-07-19T16:35:00.923Z,28.78
2018-07-19T16:36:07.806Z,28.66
2018-07-19T16:38:11.589Z,28.72
2018-07-19T16:39:21.631Z,28.84
2018-07-19T16:40:21.233Z,29.10
2018-07-19T16:42:37.523Z,29.23
2018-07-19T16:44:52.490Z,29.22